[ ตารางข้อมูล ] [ Min-Max ] [ วันนี้4 ] [ วันนี้2 ] [ เทียบ3วัน A ] [ เทียบ4วัน B ]   

วันนี้2   [ ◀ ช่วงเก่ากว่า ] [ ช่วงที่ 241 ] [ ช่วงใหม่กว่า ▶ ] [ ล่าสุด ]    [ 3 ชั่วโมง ] [ 6 ชั่วโมง ] [ 12 ชั่วโมง ] [ 24 ชั่วโมง ]   วันนี้2

อุณภูมิตู้ Knockdown4529  ราย 3 ชั่วโมง  ที่วัดได้ ในช่วงวันเวลา 06/04/2026 (13:27) ถึง 06/04/2026 (16:27) 
ความชื้นในตู้ Knockdown4529  ราย 3 ชั่วโมง  ที่วัดได้ ในช่วงวันเวลา 06/04/2026 (13:27) ถึง 06/04/2026 (16:27) 

 
DS18B20SHTC3 
IDDate d/m/Y & Timedata1
สูง
data2
ต่ำ
data3
นอก
temp
pcb
hum
pcb
Time
 9379  06/04/2026 16:24:29  32.8  32.5  31.5  32.8  66.9  16:24 
 9378  06/04/2026 16:19:48  33.1  32.6  31.6  33.0  65.5  16:19 
 9377  06/04/2026 16:15:06  33.1  32.6  31.7  32.9  65.4  16:15 
 9376  06/04/2026 16:10:25  33.1  32.6  31.9  33.0  65.1  16:10 
 9375  06/04/2026 16:05:44  33.2  32.8  32.1  33.0  64.4  16:05 
 9374  06/04/2026 16:01:03  33.4  33.0  32.4  33.3  64.3  16:01 
 9373  06/04/2026 15:56:21  33.6  33.2  32.8  33.5  64.3  15:56 
 9372  06/04/2026 15:51:40  33.8  33.3  33.0  33.6  66.0  15:51 
 9371  06/04/2026 15:46:58  33.9  33.2  32.8  33.6  66.3  15:46 
 9370  06/04/2026 15:42:16  34.0  33.3  33.1  33.6  66.3  15:42 
 9369  06/04/2026 15:37:34  34.0  33.3  33.5  33.6  66.4  15:37 
 9368  06/04/2026 15:32:52  34.1  33.3  33.4  33.6  66.2  15:32 
 9367  06/04/2026 15:28:11  34.2  33.3  33.5  33.7  66.1  15:28 
 9366  06/04/2026 15:23:29  34.2  33.3  33.7  33.6  66.0  15:23 
 9365  06/04/2026 15:18:47  34.3  33.3  34.0  33.6  66.0  15:18 
 9364  06/04/2026 15:14:05  34.4  33.3  34.0  33.8  65.8  15:14 
 9363  06/04/2026 15:09:24  34.4  33.3  33.9  33.7  65.8  15:09 
 9362  06/04/2026 15:04:42  34.5  33.3  34.0  33.8  65.9  15:04 
 9361  06/04/2026 15:00:00  34.6  33.3  34.1  33.6  65.7  15:00 
 9360  06/04/2026 14:55:19  34.6  33.3  34.2  33.8  65.8  14:55 
 9359  06/04/2026 14:50:37  34.6  33.2  34.5  33.8  65.7  14:50 
 9358  06/04/2026 14:45:56  34.6  33.2  34.7  33.9  65.6  14:45 
 9357  06/04/2026 14:41:13  34.6  33.2  34.6  34.1  65.4  14:41 
 9356  06/04/2026 14:36:31  34.6  33.2  34.9  34.0  65.4  14:36 

Data every 5 minute.


ใช้เวลาประมวลผล 0.00185 วินาที